Time;durP1;ratioP1;P1;durP2;ratioP2;P2;SDS_P1;SDS_P2;PMS_P1;PMS_P2;Temp;Humidity;BMP_temperature;BMP_pressure;BME280_temperature;BME280_humidity;BME280_pressure;Samples;Min_cycle;Max_cycle;Signal;HPM_P1;HPM_P2
2022/06/28 00:00:07;;;;;;;4.35;2.90;;;;;;;;;;4402402;32;20582;-58
2022/06/28 00:02:33;;;;;;;8.35;3.50;;;;;;;;;;4387796;32;20214;-58
2022/06/28 00:04:58;;;;;;;9.63;3.70;;;;;;;;;;4387468;32;20531;-57
2022/06/28 00:07:24;;;;;;;4.72;3.65;;;;;;;;;;4387280;32;20303;-57
2022/06/28 00:09:49;;;;;;;4.62;3.65;;;;;;;;;;4387414;32;20240;-57
2022/06/28 00:12:15;;;;;;;6.12;5.15;;;;;;;;;;4387019;32;20230;-57
2022/06/28 00:17:25;;;;;;;5.35;3.90;;;;;;;;;;4387341;32;20252;-58
2022/06/28 00:19:51;;;;;;;7.10;3.87;;;;;;;;;;4387406;32;20622;-58
2022/06/28 00:22:16;;;;;;;4.30;3.22;;;;;;;;;;4395996;32;20362;-58
2022/06/28 00:24:42;;;;;;;4.93;3.70;;;;;;;;;;4405211;32;20276;-58
2022/06/28 00:27:07;;;;;;;4.68;3.58;;;;;;;;;;4405203;32;20217;-58
2022/06/28 00:29:33;;;;;;;12.60;3.53;;;;;;;;;;4405404;32;20648;-58
2022/06/28 00:31:58;;;;;;;4.40;3.20;;;;;;;;;;4404606;32;20371;-58
2022/06/28 00:34:24;;;;;;;13.00;3.53;;;;;;;;;;4405135;32;20887;-57
2022/06/28 00:36:49;;;;;;;7.62;3.75;;;;;;;;;;4404597;32;20236;-58
2022/06/28 00:39:15;;;;;;;3.83;3.05;;;;;;;;;;4405104;32;20197;-58
2022/06/28 00:41:42;;;;;;;7.00;4.35;;;;;;;;;;4403555;32;20650;-58
2022/06/28 00:44:10;;;;;;;8.80;7.45;;;;;;;;;;4405384;32;20236;-58
2022/06/28 00:46:36;;;;;;;9.98;6.40;;;;;;;;;;4404897;32;20598;-58
2022/06/28 00:49:03;;;;;;;6.95;3.65;;;;;;;;;;4403780;32;20290;-58
2022/06/28 00:51:29;;;;;;;4.00;3.62;;;;;;;;;;4404690;32;20352;-58
2022/06/28 00:53:55;;;;;;;4.90;4.30;;;;;;;;;;4404915;32;20232;-58
2022/06/28 00:56:21;;;;;;;6.45;3.80;;;;;;;;;;4404661;32;20650;-58
2022/06/28 00:58:46;;;;;;;3.72;3.10;;;;;;;;;;4404779;32;20286;-58
2022/06/28 01:01:12;;;;;;;4.87;2.85;;;;;;;;;;4404082;32;20556;-58
2022/06/28 01:03:37;;;;;;;5.30;2.85;;;;;;;;;;4404775;32;20186;-58
2022/06/28 01:06:03;;;;;;;4.12;2.83;;;;;;;;;;4404229;32;20213;-58
2022/06/28 01:08:28;;;;;;;4.07;3.17;;;;;;;;;;4404386;32;20253;-58
2022/06/28 01:10:54;;;;;;;10.80;3.15;;;;;;;;;;4402940;32;20229;-58
2022/06/28 01:13:20;;;;;;;3.80;3.25;;;;;;;;;;4416016;32;20255;-58
2022/06/28 01:15:45;;;;;;;5.82;3.78;;;;;;;;;;4404506;32;20208;-58
2022/06/28 01:18:12;;;;;;;4.03;3.05;;;;;;;;;;4404319;32;20228;-58
2022/06/28 01:20:40;;;;;;;4.45;3.28;;;;;;;;;;4404142;32;20288;-58
2022/06/28 01:23:07;;;;;;;9.55;2.92;;;;;;;;;;4404115;32;20226;-58
2022/06/28 01:25:32;;;;;;;3.70;2.97;;;;;;;;;;4404470;32;20352;-58
2022/06/28 01:27:58;;;;;;;5.55;3.20;;;;;;;;;;4404026;32;20794;-58
2022/06/28 01:30:26;;;;;;;5.85;3.20;;;;;;;;;;4403550;32;20673;-59
2022/06/28 01:32:52;;;;;;;5.20;3.17;;;;;;;;;;4403934;32;20304;-58
2022/06/28 01:35:18;;;;;;;4.22;3.22;;;;;;;;;;4404233;32;20225;-59
2022/06/28 01:37:43;;;;;;;5.05;3.55;;;;;;;;;;4404456;32;20217;-58
2022/06/28 01:40:09;;;;;;;6.37;3.78;;;;;;;;;;4404307;32;20263;-58
2022/06/28 01:42:35;;;;;;;5.20;3.58;;;;;;;;;;4403834;32;20213;-58
2022/06/28 01:45:01;;;;;;;4.32;3.67;;;;;;;;;;4403908;32;20227;-58
2022/06/28 01:47:28;;;;;;;5.03;3.67;;;;;;;;;;4403940;32;20326;-58
2022/06/28 01:49:54;;;;;;;4.10;2.78;;;;;;;;;;4403794;32;20322;-59
2022/06/28 01:52:20;;;;;;;6.85;3.67;;;;;;;;;;4403844;32;20303;-58
2022/06/28 01:54:46;;;;;;;4.40;3.62;;;;;;;;;;4403982;32;20313;-58
2022/06/28 01:57:11;;;;;;;4.90;3.15;;;;;;;;;;4403731;32;20613;-58
2022/06/28 01:59:38;;;;;;;8.02;3.42;;;;;;;;;;4403565;32;20562;-57
2022/06/28 02:02:04;;;;;;;6.18;3.05;;;;;;;;;;4392084;32;20221;-57
2022/06/28 02:04:30;;;;;;;5.20;3.37;;;;;;;;;;4388579;32;20622;-58
2022/06/28 02:06:56;;;;;;;4.57;3.42;;;;;;;;;;4388107;32;20720;-58
2022/06/28 02:09:23;;;;;;;6.30;3.28;;;;;;;;;;4388415;32;20281;-58
2022/06/28 02:11:49;;;;;;;6.00;3.35;;;;;;;;;;4388324;32;20383;-59
2022/06/28 02:14:15;;;;;;;4.10;3.50;;;;;;;;;;4388438;32;20201;-58
2022/06/28 02:16:40;;;;;;;6.35;4.00;;;;;;;;;;4388412;32;20229;-58
2022/06/28 02:19:06;;;;;;;5.05;3.83;;;;;;;;;;4388588;32;20206;-58
2022/06/28 02:21:39;;;;;;;4.82;3.78;;;;;;;;;;4390771;32;20304;-58
2022/06/28 02:24:06;;;;;;;4.78;4.12;;;;;;;;;;4403778;32;20205;-58
2022/06/28 02:26:32;;;;;;;9.00;4.75;;;;;;;;;;4401890;32;20300;-58
2022/06/28 02:29:03;;;;;;;5.68;4.37;;;;;;;;;;4403375;32;20221;-58
2022/06/28 02:31:29;;;;;;;11.32;4.75;;;;;;;;;;4403289;32;20240;-58
2022/06/28 02:33:54;;;;;;;6.80;4.57;;;;;;;;;;4403588;32;20193;-58
2022/06/28 02:41:50;;;;;;;8.40;3.67;;;;;;;;;;4403215;32;20232;-58
2022/06/28 02:44:16;;;;;;;12.98;4.28;;;;;;;;;;4402351;32;20678;-58
2022/06/28 02:46:42;;;;;;;5.53;3.72;;;;;;;;;;4401903;32;20316;-58
2022/06/28 02:49:08;;;;;;;7.15;4.10;;;;;;;;;;4403308;32;20226;-57
2022/06/28 02:51:33;;;;;;;8.50;4.30;;;;;;;;;;4402719;32;20309;-58
2022/06/28 02:54:00;;;;;;;10.00;5.35;;;;;;;;;;4403589;32;20546;-57
2022/06/28 02:56:25;;;;;;;5.43;4.10;;;;;;;;;;4403125;32;20710;-58
2022/06/28 02:58:51;;;;;;;7.82;4.55;;;;;;;;;;4402946;32;20256;-57
2022/06/28 03:01:16;;;;;;;9.60;5.15;;;;;;;;;;4396306;32;20313;-58
2022/06/28 03:03:42;;;;;;;7.93;5.25;;;;;;;;;;4388007;32;20268;-57
2022/06/28 03:06:07;;;;;;;5.62;4.97;;;;;;;;;;4387236;32;20704;-57
2022/06/28 03:08:33;;;;;;;9.10;5.03;;;;;;;;;;4388011;32;20226;-57
2022/06/28 03:10:59;;;;;;;11.12;4.97;;;;;;;;;;4387490;32;20293;-57
2022/06/28 03:13:25;;;;;;;6.37;4.82;;;;;;;;;;4387868;32;20213;-57
2022/06/28 03:15:50;;;;;;;9.43;4.00;;;;;;;;;;4387312;32;20202;-57
2022/06/28 03:18:16;;;;;;;8.18;4.62;;;;;;;;;;4387745;32;20718;-58
2022/06/28 03:20:42;;;;;;;5.20;4.00;;;;;;;;;;4387368;32;20319;-58
2022/06/28 03:23:07;;;;;;;9.57;4.53;;;;;;;;;;4397287;32;20684;-58
2022/06/28 03:25:33;;;;;;;9.68;6.57;;;;;;;;;;4387927;32;20275;-58
2022/06/28 03:27:59;;;;;;;12.77;5.32;;;;;;;;;;4387798;32;20252;-58
2022/06/28 03:30:24;;;;;;;7.70;3.78;;;;;;;;;;4396513;32;20282;-58
2022/06/28 03:32:50;;;;;;;5.10;4.10;;;;;;;;;;4402889;32;20655;-58
2022/06/28 03:35:15;;;;;;;10.40;4.28;;;;;;;;;;4402150;32;20219;-58
2022/06/28 03:37:41;;;;;;;9.68;4.32;;;;;;;;;;4402677;32;20222;-57
2022/06/28 03:40:07;;;;;;;12.40;4.75;;;;;;;;;;4402828;32;20202;-57
2022/06/28 03:42:33;;;;;;;6.00;4.35;;;;;;;;;;4402281;32;20328;-58
2022/06/28 03:44:59;;;;;;;8.75;4.97;;;;;;;;;;4402274;32;20221;-57
2022/06/28 03:47:24;;;;;;;6.93;4.65;;;;;;;;;;4402309;32;20654;-58
2022/06/28 03:49:50;;;;;;;6.50;5.18;;;;;;;;;;4402515;32;20263;-57
2022/06/28 03:52:16;;;;;;;10.70;5.18;;;;;;;;;;4402234;32;20224;-57
2022/06/28 03:54:41;;;;;;;7.50;5.43;;;;;;;;;;4402672;32;20705;-57
2022/06/28 03:57:07;;;;;;;6.10;4.90;;;;;;;;;;4405437;32;20283;-57
2022/06/28 03:59:33;;;;;;;6.50;5.43;;;;;;;;;;4405314;32;20285;-57
2022/06/28 04:01:58;;;;;;;7.25;5.28;;;;;;;;;;4394176;32;20225;-64
2022/06/28 04:04:24;;;;;;;14.52;5.72;;;;;;;;;;4390156;32;20235;-57
2022/06/28 04:06:49;;;;;;;11.40;4.87;;;;;;;;;;4390064;32;20248;-57
2022/06/28 04:09:16;;;;;;;7.80;4.87;;;;;;;;;;4390107;32;20202;-64
2022/06/28 04:11:42;;;;;;;7.55;5.18;;;;;;;;;;4390037;32;20251;-57
2022/06/28 04:14:08;;;;;;;5.75;5.05;;;;;;;;;;4389586;32;20538;-57
2022/06/28 04:16:33;;;;;;;11.12;5.50;;;;;;;;;;4401396;32;20242;-57
2022/06/28 04:18:59;;;;;;;10.50;5.12;;;;;;;;;;4389525;32;20590;-57
2022/06/28 04:21:25;;;;;;;15.68;9.55;;;;;;;;;;4389641;32;20252;-57
2022/06/28 04:23:50;;;;;;;14.00;8.43;;;;;;;;;;4403949;32;20606;-57
2022/06/28 04:26:16;;;;;;;9.57;6.57;;;;;;;;;;4404954;32;20217;-57
2022/06/28 04:28:41;;;;;;;6.37;4.85;;;;;;;;;;4403540;32;20225;-57
2022/06/28 04:31:07;;;;;;;7.43;4.20;;;;;;;;;;4401707;32;20336;-57
2022/06/28 04:33:33;;;;;;;6.03;4.57;;;;;;;;;;4404157;32;20331;-57
2022/06/28 04:35:59;;;;;;;8.30;4.57;;;;;;;;;;4404190;32;20299;-57
2022/06/28 04:38:24;;;;;;;4.20;3.80;;;;;;;;;;4416048;32;20288;-57
2022/06/28 04:40:49;;;;;;;7.68;4.75;;;;;;;;;;4404509;32;20590;-58
2022/06/28 04:43:15;;;;;;;4.82;3.60;;;;;;;;;;4404391;32;20278;-57
2022/06/28 04:45:41;;;;;;;6.60;4.40;;;;;;;;;;4404389;32;20779;-57
2022/06/28 04:48:06;;;;;;;8.88;4.60;;;;;;;;;;4403925;32;20349;-57
2022/06/28 04:50:32;;;;;;;11.65;5.12;;;;;;;;;;4404686;32;20716;-57
2022/06/28 04:52:58;;;;;;;9.00;4.37;;;;;;;;;;4403000;32;20318;-57
2022/06/28 04:55:24;;;;;;;9.90;4.65;;;;;;;;;;4404450;32;20210;-57
2022/06/28 04:57:50;;;;;;;6.70;4.75;;;;;;;;;;4404558;32;20244;-56
2022/06/28 05:00:16;;;;;;;8.63;5.28;;;;;;;;;;4404344;32;20617;-57
2022/06/28 05:02:41;;;;;;;6.75;4.10;;;;;;;;;;4404524;32;20220;-57
2022/06/28 05:05:08;;;;;;;7.70;4.78;;;;;;;;;;4403901;32;20251;-56
2022/06/28 05:07:34;;;;;;;4.07;3.67;;;;;;;;;;4403741;32;20216;-57
2022/06/28 05:10:00;;;;;;;10.25;4.55;;;;;;;;;;4404315;32;20652;-57
2022/06/28 05:12:26;;;;;;;9.05;5.07;;;;;;;;;;4403887;32;20240;-57
2022/06/28 05:14:52;;;;;;;8.13;4.55;;;;;;;;;;4404148;32;20272;-57
2022/06/28 05:17:17;;;;;;;14.00;4.82;;;;;;;;;;4404230;32;20234;-57
2022/06/28 05:19:43;;;;;;;8.35;5.62;;;;;;;;;;4415270;32;20312;-57
2022/06/28 05:22:09;;;;;;;11.77;5.43;;;;;;;;;;4403796;32;20208;-57
2022/06/28 05:24:35;;;;;;;5.82;5.03;;;;;;;;;;4404223;32;20218;-57
2022/06/28 05:27:01;;;;;;;11.45;5.40;;;;;;;;;;4403960;32;20226;-56
2022/06/28 05:29:27;;;;;;;5.60;4.12;;;;;;;;;;4403715;32;20290;-57
2022/06/28 05:31:52;;;;;;;7.32;4.70;;;;;;;;;;4403760;32;20330;-57
2022/06/28 05:34:18;;;;;;;5.35;4.18;;;;;;;;;;4402955;32;20665;-57
2022/06/28 05:36:44;;;;;;;9.00;3.83;;;;;;;;;;4403891;32;20672;-57
2022/06/28 05:39:09;;;;;;;41.22;9.95;;;;;;;;;;4403645;32;20235;-57
2022/06/28 05:41:35;;;;;;;29.75;10.68;;;;;;;;;;4402442;32;20224;-57
2022/06/28 05:44:01;;;;;;;8.60;5.60;;;;;;;;;;4402619;32;20198;-57
2022/06/28 05:46:26;;;;;;;13.38;5.85;;;;;;;;;;4403502;32;20221;-57
2022/06/28 05:48:52;;;;;;;12.43;5.15;;;;;;;;;;4401948;32;20284;-57
2022/06/28 05:51:18;;;;;;;5.82;4.50;;;;;;;;;;4401969;32;20232;-57
2022/06/28 05:53:44;;;;;;;16.33;5.65;;;;;;;;;;4403471;32;20202;-57
2022/06/28 05:56:09;;;;;;;15.25;6.00;;;;;;;;;;4403232;32;21185;-57
2022/06/28 05:58:35;;;;;;;13.77;6.72;;;;;;;;;;4402957;32;20303;-58
2022/06/28 06:01:00;;;;;;;5.95;3.62;;;;;;;;;;4402133;32;20685;-57
2022/06/28 06:03:26;;;;;;;9.82;4.82;;;;;;;;;;4401768;32;20217;-58
2022/06/28 06:05:51;;;;;;;7.72;4.65;;;;;;;;;;4402869;32;20201;-58
2022/06/28 06:08:17;;;;;;;25.15;9.05;;;;;;;;;;4402999;32;20560;-57
2022/06/28 06:10:42;;;;;;;28.60;9.48;;;;;;;;;;4402918;32;20380;-58
2022/06/28 06:13:08;;;;;;;13.85;6.62;;;;;;;;;;4402575;32;20241;-57
2022/06/28 06:15:33;;;;;;;14.20;5.68;;;;;;;;;;4403037;32;20662;-57
2022/06/28 06:17:59;;;;;;;11.80;5.90;;;;;;;;;;4402820;32;20224;-58
2022/06/28 06:20:24;;;;;;;16.23;5.07;;;;;;;;;;4402047;32;20256;-58
2022/06/28 06:22:50;;;;;;;5.80;4.62;;;;;;;;;;4402644;32;20242;-57
2022/06/28 06:25:16;;;;;;;8.15;4.55;;;;;;;;;;4401714;32;20286;-57
2022/06/28 06:27:43;;;;;;;5.32;4.82;;;;;;;;;;4402910;32;20248;-58
2022/06/28 06:30:09;;;;;;;5.65;4.57;;;;;;;;;;4402785;32;20209;-58
2022/06/28 06:32:35;;;;;;;7.37;4.82;;;;;;;;;;4402105;32;20243;-58
2022/06/28 06:35:00;;;;;;;6.50;4.28;;;;;;;;;;4395048;32;20206;-58
2022/06/28 06:37:26;;;;;;;8.80;5.07;;;;;;;;;;4387537;32;20680;-58
2022/06/28 06:39:52;;;;;;;11.75;4.78;;;;;;;;;;4387198;32;20210;-58
2022/06/28 06:42:17;;;;;;;7.22;5.28;;;;;;;;;;4401294;32;20276;-58
2022/06/28 06:44:43;;;;;;;7.37;3.92;;;;;;;;;;4401174;32;20225;-58
2022/06/28 06:47:09;;;;;;;7.72;3.28;;;;;;;;;;4402438;32;20220;-58
2022/06/28 06:49:34;;;;;;;5.15;3.97;;;;;;;;;;4402615;32;20221;-58
2022/06/28 06:51:59;;;;;;;12.48;4.55;;;;;;;;;;4402300;32;20681;-57
2022/06/28 06:54:25;;;;;;;9.30;3.85;;;;;;;;;;4402258;32;20481;-57
2022/06/28 06:56:50;;;;;;;10.23;4.85;;;;;;;;;;4400984;32;20346;-58
2022/06/28 06:59:16;;;;;;;10.40;5.00;;;;;;;;;;4401880;32;20222;-58
2022/06/28 07:01:42;;;;;;;13.98;4.78;;;;;;;;;;4401987;32;20249;-58
2022/06/28 07:04:08;;;;;;;8.02;4.50;;;;;;;;;;4400397;32;20272;-57
2022/06/28 07:06:34;;;;;;;9.15;4.55;;;;;;;;;;4401919;32;20297;-58
2022/06/28 07:09:00;;;;;;;7.72;4.75;;;;;;;;;;4401237;32;20236;-57
2022/06/28 07:11:25;;;;;;;6.03;4.12;;;;;;;;;;4401179;32;20426;-57
2022/06/28 07:13:51;;;;;;;8.73;4.85;;;;;;;;;;4401051;32;20217;-57
2022/06/28 07:16:16;;;;;;;6.10;3.95;;;;;;;;;;4400946;32;20672;-58
2022/06/28 07:18:42;;;;;;;8.18;4.07;;;;;;;;;;4402290;32;20264;-57
2022/06/28 07:21:08;;;;;;;4.57;3.45;;;;;;;;;;4401126;32;20248;-58
2022/06/28 07:23:34;;;;;;;6.57;3.72;;;;;;;;;;4402401;32;20219;-58
2022/06/28 07:25:59;;;;;;;6.57;3.33;;;;;;;;;;4402472;32;20628;-57
2022/06/28 07:28:25;;;;;;;7.37;3.03;;;;;;;;;;4402487;32;20583;-57
2022/06/28 07:30:50;;;;;;;4.20;3.22;;;;;;;;;;4397528;32;20619;-58
2022/06/28 07:33:16;;;;;;;9.55;3.15;;;;;;;;;;4398565;32;20229;-59
2022/06/28 07:35:42;;;;;;;9.75;3.42;;;;;;;;;;4387068;32;20233;-58
2022/06/28 07:38:08;;;;;;;4.68;3.28;;;;;;;;;;4387290;32;20217;-59
2022/06/28 07:40:33;;;;;;;4.55;3.22;;;;;;;;;;4387227;32;20269;-58
2022/06/28 07:42:59;;;;;;;11.18;3.35;;;;;;;;;;4386792;32;20249;-59
2022/06/28 07:45:24;;;;;;;4.07;3.10;;;;;;;;;;4387369;32;20244;-59
2022/06/28 07:47:50;;;;;;;3.83;2.67;;;;;;;;;;4387196;32;20218;-59
2022/06/28 07:53:02;;;;;;;3.95;2.62;;;;;;;;;;4387180;32;20594;-58
2022/06/28 07:55:29;;;;;;;4.60;2.53;;;;;;;;;;4386827;32;20202;-59
2022/06/28 07:57:55;;;;;;;6.62;2.92;;;;;;;;;;4397977;32;20269;-57
2022/06/28 08:00:21;;;;;;;5.68;2.67;;;;;;;;;;4385553;32;20601;-58
2022/06/28 08:02:47;;;;;;;3.28;2.60;;;;;;;;;;4386842;32;20283;-58
2022/06/28 08:05:13;;;;;;;8.07;3.00;;;;;;;;;;4397547;32;20391;-58
2022/06/28 08:07:39;;;;;;;3.95;2.70;;;;;;;;;;4401951;32;20225;-58
2022/06/28 08:10:06;;;;;;;8.00;2.50;;;;;;;;;;4401607;32;20236;-58
2022/06/28 08:12:32;;;;;;;3.58;2.47;;;;;;;;;;4401396;32;20319;-58
2022/06/28 08:14:57;;;;;;;6.78;2.92;;;;;;;;;;4400934;32;20292;-58
2022/06/28 08:17:23;;;;;;;2.83;2.42;;;;;;;;;;4401688;32;20225;-58
2022/06/28 08:19:48;;;;;;;5.10;2.50;;;;;;;;;;4401861;32;20202;-58
2022/06/28 08:22:14;;;;;;;4.05;2.45;;;;;;;;;;4401615;32;20398;-58
2022/06/28 08:24:39;;;;;;;2.78;2.42;;;;;;;;;;4400223;32;20248;-58
2022/06/28 08:27:05;;;;;;;2.25;2.05;;;;;;;;;;4400442;32;20241;-58
2022/06/28 08:29:32;;;;;;;2.53;2.33;;;;;;;;;;4401831;32;20332;-58
2022/06/28 08:31:58;;;;;;;4.72;1.90;;;;;;;;;;4400861;32;20771;-57
2022/06/28 08:34:23;;;;;;;21.08;5.20;;;;;;;;;;4400946;32;20201;-57
2022/06/28 08:36:49;;;;;;;2.78;2.47;;;;;;;;;;4401773;32;20697;-58
2022/06/28 08:39:14;;;;;;;3.92;2.87;;;;;;;;;;4401465;32;20259;-57
2022/06/28 08:41:42;;;;;;;7.05;2.92;;;;;;;;;;4401559;32;20206;-56
2022/06/28 08:44:10;;;;;;;4.05;2.78;;;;;;;;;;4404675;32;20209;-58
2022/06/28 08:46:36;;;;;;;3.70;2.42;;;;;;;;;;4404674;32;20239;-58
2022/06/28 08:49:06;;;;;;;5.93;2.55;;;;;;;;;;4405113;32;20190;-58
2022/06/28 08:51:32;;;;;;;3.47;2.15;;;;;;;;;;4404818;32;20244;-58
2022/06/28 08:54:02;;;;;;;3.03;2.20;;;;;;;;;;4405134;32;20227;-59
2022/06/28 08:56:29;;;;;;;2.78;1.92;;;;;;;;;;4405155;32;20566;-58
2022/06/28 08:58:58;;;;;;;3.90;1.92;;;;;;;;;;4405171;32;20201;-59
2022/06/28 09:01:24;;;;;;;3.22;2.12;;;;;;;;;;4399492;32;20311;-59
2022/06/28 09:03:51;;;;;;;5.20;2.65;;;;;;;;;;4391606;32;20247;-59
2022/06/28 09:06:17;;;;;;;5.43;2.55;;;;;;;;;;4402843;32;20251;-59
2022/06/28 09:08:43;;;;;;;2.47;1.95;;;;;;;;;;4404997;32;20289;-59
2022/06/28 09:11:08;;;;;;;8.85;3.40;;;;;;;;;;4404408;32;20201;-59
2022/06/28 09:13:35;;;;;;;3.60;1.95;;;;;;;;;;4403749;32;20576;-59
2022/06/28 09:16:03;;;;;;;6.22;2.90;;;;;;;;;;4403408;32;20209;-59
2022/06/28 09:18:34;;;;;;;3.03;2.03;;;;;;;;;;4403123;32;20299;-58
2022/06/28 09:21:00;;;;;;;5.15;2.67;;;;;;;;;;4403948;32;20283;-59
2022/06/28 09:23:34;;;;;;;3.33;2.53;;;;;;;;;;4398649;32;20378;-59
2022/06/28 09:26:12;;;;;;;3.78;2.45;;;;;;;;;;4390359;32;20633;-59
2022/06/28 09:28:47;;;;;;;4.90;3.00;;;;;;;;;;4404103;32;20193;-59
2022/06/28 09:31:23;;;;;;;7.50;3.00;;;;;;;;;;4398494;32;20634;-59
2022/06/28 09:34:01;;;;;;;3.40;2.62;;;;;;;;;;4392917;32;20234;-59
2022/06/28 09:36:27;;;;;;;2.92;2.47;;;;;;;;;;4402166;32;20335;-59
2022/06/28 09:38:56;;;;;;;8.10;2.83;;;;;;;;;;4402312;32;21034;-60
2022/06/28 09:41:26;;;;;;;5.32;2.12;;;;;;;;;;4403794;32;20283;-60
2022/06/28 09:44:03;;;;;;;2.92;2.20;;;;;;;;;;4402336;32;20662;-59
2022/06/28 09:46:31;;;;;;;7.12;2.80;;;;;;;;;;4403467;32;20287;-59
2022/06/28 09:49:04;;;;;;;17.58;2.50;;;;;;;;;;4389775;32;20269;-59
2022/06/28 09:51:32;;;;;;;10.18;4.20;;;;;;;;;;4401754;32;20328;-60
2022/06/28 09:54:02;;;;;;;8.32;3.95;;;;;;;;;;4403684;32;20260;-59
2022/06/28 09:56:32;;;;;;;8.18;2.28;;;;;;;;;;4403520;32;20252;-59
2022/06/28 09:58:58;;;;;;;6.75;2.00;;;;;;;;;;4403769;32;20222;-60
2022/06/28 10:01:25;;;;;;;3.60;1.92;;;;;;;;;;4403121;32;20692;-59
2022/06/28 10:03:52;;;;;;;4.45;2.37;;;;;;;;;;4403420;32;20276;-59
2022/06/28 10:06:18;;;;;;;5.22;2.58;;;;;;;;;;4399227;32;20229;-60
2022/06/28 10:08:45;;;;;;;2.40;2.12;;;;;;;;;;4388096;32;20195;-59
2022/06/28 10:11:11;;;;;;;6.78;1.90;;;;;;;;;;4387793;32;20805;-59
2022/06/28 10:16:46;;;;;;;5.50;2.67;;;;;;;;;;4387478;32;20239;-59
2022/06/28 10:19:18;;;;;;;3.00;1.92;;;;;;;;;;4391696;32;20407;-59
2022/06/28 10:21:44;;;;;;;7.78;2.75;;;;;;;;;;4413142;32;20278;-59
2022/06/28 10:24:10;;;;;;;2.97;2.67;;;;;;;;;;4402780;32;20692;-59
2022/06/28 10:26:36;;;;;;;7.22;2.15;;;;;;;;;;4401264;32;20225;-59
2022/06/28 10:29:07;;;;;;;3.85;2.45;;;;;;;;;;4401326;32;20226;-59
2022/06/28 10:31:41;;;;;;;3.55;2.00;;;;;;;;;;4402375;32;20315;-60
2022/06/28 10:34:09;;;;;;;4.45;2.45;;;;;;;;;;4402805;32;20351;-59
2022/06/28 10:36:55;;;;;;;8.70;3.00;;;;;;;;;;4401957;32;20268;-59
2022/06/28 10:39:26;;;;;;;5.85;3.05;;;;;;;;;;4402771;32;20331;-60
2022/06/28 10:41:58;;;;;;;3.08;2.40;;;;;;;;;;4402106;32;20218;-59
2022/06/28 10:44:26;;;;;;;6.95;2.60;;;;;;;;;;4402630;32;20284;-59
2022/06/28 10:47:01;;;;;;;2.78;2.33;;;;;;;;;;4402433;32;20225;-58
2022/06/28 10:49:50;;;;;;;6.25;2.70;;;;;;;;;;4402981;32;20552;-58
2022/06/28 10:52:23;;;;;;;7.80;2.55;;;;;;;;;;4402212;32;20247;-58
2022/06/28 10:54:51;;;;;;;3.22;2.47;;;;;;;;;;4402604;32;20683;-59
2022/06/28 10:57:27;;;;;;;4.72;2.72;;;;;;;;;;4400871;32;20229;-58
2022/06/28 10:59:56;;;;;;;4.25;1.80;;;;;;;;;;4402719;32;20342;-60
2022/06/28 11:02:22;;;;;;;4.18;2.35;;;;;;;;;;4402859;32;20255;-59
2022/06/28 11:05:05;;;;;;;3.17;2.20;;;;;;;;;;4402442;32;20206;-59
2022/06/28 11:07:33;;;;;;;3.37;2.83;;;;;;;;;;4402274;32;20212;-58
2022/06/28 11:09:59;;;;;;;2.65;2.15;;;;;;;;;;4402365;32;20189;-59
2022/06/28 11:12:27;;;;;;;5.22;2.62;;;;;;;;;;4401742;32;20629;-59
2022/06/28 11:14:54;;;;;;;2.65;2.12;;;;;;;;;;4402710;32;20704;-58
2022/06/28 11:17:34;;;;;;;6.18;2.80;;;;;;;;;;4402568;32;20220;-59
2022/06/28 11:20:03;;;;;;;5.87;2.28;;;;;;;;;;4402880;32;20619;-58
2022/06/28 11:22:47;;;;;;;3.90;2.62;;;;;;;;;;4401358;32;20213;-58
2022/06/28 11:25:18;;;;;;;1.48;1.35;;;;;;;;;;4402091;32;20318;-58
2022/06/28 11:27:45;;;;;;;6.45;1.95;;;;;;;;;;4401949;32;20332;-58
2022/06/28 11:30:11;;;;;;;7.43;1.85;;;;;;;;;;4402168;32;20217;-58
2022/06/28 11:32:45;;;;;;;5.10;1.60;;;;;;;;;;4402486;32;20273;-58
2022/06/28 11:35:20;;;;;;;3.53;1.95;;;;;;;;;;4401464;32;20622;-58
2022/06/28 11:37:48;;;;;;;2.42;1.70;;;;;;;;;;4402478;32;20225;-58
2022/06/28 11:40:15;;;;;;;4.35;1.65;;;;;;;;;;4401064;32;20343;-58
2022/06/28 11:42:41;;;;;;;3.25;1.45;;;;;;;;;;4402144;32;20556;-57
2022/06/28 11:45:09;;;;;;;1.80;1.45;;;;;;;;;;4402462;32;20259;-57
2022/06/28 11:47:35;;;;;;;5.85;1.70;;;;;;;;;;4402318;32;20326;-59
2022/06/28 11:50:14;;;;;;;2.80;1.30;;;;;;;;;;4402264;32;20209;-58
2022/06/28 11:52:49;;;;;;;2.97;1.75;;;;;;;;;;4402004;32;20298;-59
2022/06/28 11:55:16;;;;;;;7.12;1.85;;;;;;;;;;4402571;32;20560;-60
2022/06/28 11:57:44;;;;;;;6.25;1.67;;;;;;;;;;4402164;32;20221;-59
2022/06/28 12:00:13;;;;;;;4.18;1.70;;;;;;;;;;4402421;32;20332;-60
2022/06/28 12:02:50;;;;;;;1.83;1.48;;;;;;;;;;4402004;32;20248;-59
2022/06/28 12:05:28;;;;;;;2.10;1.50;;;;;;;;;;4402597;32;20201;-59
2022/06/28 12:07:53;;;;;;;2.65;1.87;;;;;;;;;;4401076;32;20303;-58
2022/06/28 12:10:24;;;;;;;2.35;1.73;;;;;;;;;;4402110;32;20283;-59
2022/06/28 12:12:50;;;;;;;4.22;1.75;;;;;;;;;;4401789;32;20282;-59
2022/06/28 12:15:31;;;;;;;6.00;1.73;;;;;;;;;;4401957;32;20266;-59
2022/06/28 12:18:01;;;;;;;2.33;1.75;;;;;;;;;;4403290;32;20285;-59
2022/06/28 12:20:26;;;;;;;4.10;1.90;;;;;;;;;;4404853;32;20492;-59
2022/06/28 12:22:59;;;;;;;3.60;1.77;;;;;;;;;;4404935;32;20264;-59
2022/06/28 12:25:25;;;;;;;2.85;1.60;;;;;;;;;;4389895;32;20217;-59
2022/06/28 12:27:50;;;;;;;3.80;1.48;;;;;;;;;;4396480;32;20263;-59
2022/06/28 12:30:16;;;;;;;2.53;1.70;;;;;;;;;;4404827;32;20556;-59
2022/06/28 12:32:42;;;;;;;5.25;2.12;;;;;;;;;;4404769;32;20245;-59
2022/06/28 12:35:09;;;;;;;2.40;1.67;;;;;;;;;;4405252;32;20480;-59
2022/06/28 12:37:36;;;;;;;3.42;1.95;;;;;;;;;;4404633;32;20294;-59
2022/06/28 12:40:04;;;;;;;3.83;1.52;;;;;;;;;;4404803;32;20243;-58
2022/06/28 12:42:30;;;;;;;4.20;1.67;;;;;;;;;;4404655;32;20256;-59
2022/06/28 12:45:00;;;;;;;6.82;1.65;;;;;;;;;;4404818;32;20243;-59
2022/06/28 12:47:27;;;;;;;4.32;2.50;;;;;;;;;;4404612;32;20252;-58
2022/06/28 12:49:52;;;;;;;2.05;1.77;;;;;;;;;;4404774;32;20516;-59
2022/06/28 12:52:18;;;;;;;2.72;1.65;;;;;;;;;;4404295;32;20306;-59
2022/06/28 12:54:43;;;;;;;3.97;1.80;;;;;;;;;;4405489;32;20217;-58
2022/06/28 12:57:09;;;;;;;2.87;1.70;;;;;;;;;;4403787;32;20302;-58
2022/06/28 12:59:34;;;;;;;2.35;1.73;;;;;;;;;;4404600;32;20606;-59
2022/06/28 13:02:00;;;;;;;2.35;1.62;;;;;;;;;;4403951;32;20272;-60
2022/06/28 13:04:25;;;;;;;4.20;2.03;;;;;;;;;;4404069;32;20709;-59
2022/06/28 13:06:51;;;;;;;1.95;1.62;;;;;;;;;;4403646;32;20249;-59
2022/06/28 13:09:16;;;;;;;5.60;1.42;;;;;;;;;;4404424;32;20496;-59
2022/06/28 13:11:42;;;;;;;4.28;1.98;;;;;;;;;;4403924;32;20709;-58
2022/06/28 13:14:07;;;;;;;2.75;1.85;;;;;;;;;;4404333;32;20590;-58
2022/06/28 13:16:34;;;;;;;4.15;2.17;;;;;;;;;;4404371;32;20330;-58
2022/06/28 13:18:59;;;;;;;1.67;1.58;;;;;;;;;;4404366;32;20209;-58
2022/06/28 13:21:25;;;;;;;5.47;1.58;;;;;;;;;;4403761;32;20653;-58
2022/06/28 13:23:51;;;;;;;4.15;1.95;;;;;;;;;;4404724;32;20290;-58
2022/06/28 13:26:16;;;;;;;3.10;1.73;;;;;;;;;;4403735;32;20287;-58
2022/06/28 13:28:42;;;;;;;3.12;1.90;;;;;;;;;;4390598;32;20222;-58
2022/06/28 13:31:08;;;;;;;4.72;2.20;;;;;;;;;;4388980;32;20263;-58
2022/06/28 13:33:34;;;;;;;4.70;2.22;;;;;;;;;;4389251;32;20210;-59
2022/06/28 13:36:00;;;;;;;2.42;1.83;;;;;;;;;;4388814;32;20213;-60
2022/06/28 13:38:25;;;;;;;3.05;1.85;;;;;;;;;;4388863;32;20235;-59
2022/06/28 13:40:51;;;;;;;2.37;1.73;;;;;;;;;;4388689;32;20266;-59
2022/06/28 13:43:33;;;;;;;5.72;2.12;;;;;;;;;;4401504;32;20209;-58
2022/06/28 13:46:00;;;;;;;4.90;1.90;;;;;;;;;;4404218;32;20193;-58
2022/06/28 13:48:25;;;;;;;3.15;1.60;;;;;;;;;;4404299;32;20240;-58
2022/06/28 13:50:51;;;;;;;8.68;2.03;;;;;;;;;;4404199;32;20266;-58
2022/06/28 13:53:16;;;;;;;3.35;1.73;;;;;;;;;;4404377;32;20247;-59
2022/06/28 13:55:44;;;;;;;4.93;2.35;;;;;;;;;;4403804;32;20240;-59
2022/06/28 13:58:12;;;;;;;10.38;1.92;;;;;;;;;;4403601;32;20694;-58
2022/06/28 14:00:38;;;;;;;3.45;2.00;;;;;;;;;;4403898;32;20469;-58
2022/06/28 14:03:04;;;;;;;3.60;2.25;;;;;;;;;;4403886;32;20253;-58
2022/06/28 14:05:29;;;;;;;6.97;1.98;;;;;;;;;;4403956;32;20232;-58
2022/06/28 14:07:55;;;;;;;3.92;2.22;;;;;;;;;;4403839;32;20245;-60
2022/06/28 14:10:20;;;;;;;2.70;2.03;;;;;;;;;;4403383;32;20243;-58
2022/06/28 14:12:46;;;;;;;3.65;2.28;;;;;;;;;;4403154;32;20626;-59
2022/06/28 14:15:11;;;;;;;2.95;1.87;;;;;;;;;;4403761;32;20205;-59
2022/06/28 14:17:37;;;;;;;3.75;2.42;;;;;;;;;;4403108;32;20309;-58
2022/06/28 14:20:03;;;;;;;7.15;3.05;;;;;;;;;;4403899;32;20676;-59
2022/06/28 14:22:28;;;;;;;59.63;24.15;;;;;;;;;;4403642;32;20654;-59
2022/06/28 14:24:54;;;;;;;3.97;2.25;;;;;;;;;;4403732;32;20232;-59
2022/06/28 14:27:20;;;;;;;3.00;2.22;;;;;;;;;;4398765;32;20234;-59
2022/06/28 14:29:46;;;;;;;4.45;2.22;;;;;;;;;;4388265;32;20240;-58
2022/06/28 14:32:12;;;;;;;4.57;2.65;;;;;;;;;;4388019;32;20674;-58
2022/06/28 14:34:38;;;;;;;10.48;2.85;;;;;;;;;;4388482;32;20209;-59
2022/06/28 14:37:04;;;;;;;5.55;2.28;;;;;;;;;;4388229;32;20324;-58
2022/06/28 14:39:29;;;;;;;5.55;2.47;;;;;;;;;;4388060;32;20205;-58
2022/06/28 14:41:55;;;;;;;5.60;2.65;;;;;;;;;;4390536;32;20260;-59
2022/06/28 14:44:20;;;;;;;4.93;2.47;;;;;;;;;;4403399;32;20510;-59
2022/06/28 14:46:46;;;;;;;5.30;2.65;;;;;;;;;;4403796;32;20292;-58
2022/06/28 14:49:12;;;;;;;4.50;2.80;;;;;;;;;;4403471;32;20218;-59
2022/06/28 14:51:37;;;;;;;3.25;2.35;;;;;;;;;;4403440;32;20247;-58